Time;durP1;ratioP1;P1;durP2;ratioP2;P2;SDS_P1;SDS_P2;PMS_P1;PMS_P2;Temp;Humidity;BMP_temperature;BMP_pressure;BME280_temperature;BME280_humidity;BME280_pressure;Samples;Min_cycle;Max_cycle;Signal;HPM_P1;HPM_P2
2021/09/24 00:00:37;;;;;;;7.72;7.13;;;;;;;18.16;49.39;95597.75;4988376;28;20049;-71
2021/09/24 00:03:02;;;;;;;8.13;7.43;;;;;;;17.89;49.65;95559.69;4988880;28;20468;-71
2021/09/24 00:05:28;;;;;;;7.47;6.88;;;;;;;18.00;50.36;95613.06;4990077;28;20036;-72
2021/09/24 00:07:53;;;;;;;8.20;7.40;;;;;;;17.87;50.97;95607.72;4991907;28;20033;-72
2021/09/24 00:10:19;;;;;;;8.10;7.50;;;;;;;17.98;50.98;95612.63;5003474;28;20039;-71
2021/09/24 00:12:45;;;;;;;8.25;7.45;;;;;;;17.41;52.24;95596.28;4996711;28;20039;-72
2021/09/24 00:15:13;;;;;;;8.73;7.93;;;;;;;17.22;53.06;95619.44;5006914;28;20044;-71
2021/09/24 00:17:39;;;;;;;8.43;7.72;;;;;;;17.19;53.16;95618.19;5009475;28;20054;-72
2021/09/24 00:20:06;;;;;;;8.45;7.63;;;;;;;17.60;52.40;95617.22;5009531;28;20064;-70
2021/09/24 00:22:31;;;;;;;8.93;8.13;;;;;;;17.49;52.35;95608.03;5009181;28;20133;-71
2021/09/24 00:24:57;;;;;;;8.43;7.63;;;;;;;17.47;53.15;95607.59;4991760;28;20714;-70
2021/09/24 00:27:22;;;;;;;11.27;7.97;;;;;;;17.19;53.84;95602.06;4989554;28;20049;-71
2021/09/24 00:29:48;;;;;;;8.63;7.88;;;;;;;17.94;51.57;95607.13;4987914;28;20027;-71
2021/09/24 00:32:13;;;;;;;8.70;7.93;;;;;;;17.32;53.35;95592.13;4989531;28;20111;-71
2021/09/24 00:34:39;;;;;;;8.52;7.82;;;;;;;17.41;52.83;95569.38;4991222;28;20027;-71
2021/09/24 00:37:04;;;;;;;9.10;8.20;;;;;;;18.03;51.42;95580.88;4989755;28;20050;-71
2021/09/24 00:39:29;;;;;;;9.35;8.55;;;;;;;17.91;51.93;95580.88;4988513;28;20073;-72
2021/09/24 00:41:55;;;;;;;8.93;8.23;;;;;;;18.01;51.91;95574.25;4989019;28;20062;-73
2021/09/24 00:44:28;;;;;;;12.98;8.98;;;;;;;17.67;53.00;95582.47;4990238;28;20030;-71
2021/09/24 00:46:57;;;;;;;9.95;9.10;;;;;;;18.15;51.97;95590.81;5010909;28;20109;-71
2021/09/24 00:49:22;;;;;;;9.88;8.98;;;;;;;17.89;52.65;95591.22;5007254;28;20038;-72
2021/09/24 00:51:47;;;;;;;10.80;9.18;;;;;;;18.27;51.34;95563.06;5008886;28;20046;-72
2021/09/24 00:54:13;;;;;;;9.05;8.35;;;;;;;18.10;52.04;95562.22;4991106;28;20520;-72
2021/09/24 00:56:39;;;;;;;9.52;8.57;;;;;;;17.83;52.84;95562.97;4973169;28;20684;-71
2021/09/24 00:59:04;;;;;;;9.40;8.50;;;;;;;18.22;51.98;95574.06;4990562;28;20081;-70
2021/09/24 01:01:29;;;;;;;9.65;8.70;;;;;;;18.19;52.48;95579.03;4951338;28;20043;-71
2021/09/24 01:03:55;;;;;;;9.75;8.95;;;;;;;17.60;53.44;95562.63;4963902;28;20078;-71
2021/09/24 01:06:20;;;;;;;9.82;8.90;;;;;;;17.98;52.78;95567.66;4984751;28;20075;-71
2021/09/24 01:08:46;;;;;;;9.07;8.27;;;;;;;18.17;52.09;95572.44;4972915;28;20117;-71
2021/09/24 01:11:12;;;;;;;10.00;9.00;;;;;;;17.50;54.14;95577.31;4988539;28;20022;-71
2021/09/24 01:13:37;;;;;;;10.20;9.20;;;;;;;17.77;53.80;95586.63;4990473;28;20748;-71
2021/09/24 01:16:03;;;;;;;10.15;9.25;;;;;;;17.83;53.30;95574.53;4988182;28;20042;-71
2021/09/24 01:18:28;;;;;;;9.70;8.75;;;;;;;18.21;52.34;95583.28;4988551;28;20428;-72
2021/09/24 01:20:56;;;;;;;9.52;8.60;;;;;;;17.90;53.14;95585.47;4988554;28;20038;-71
2021/09/24 01:23:21;;;;;;;9.05;8.23;;;;;;;17.51;54.46;95584.28;4986945;28;20030;-72
2021/09/24 01:25:46;;;;;;;9.80;9.00;;;;;;;18.14;52.53;95591.94;4990395;28;20026;-72
2021/09/24 01:28:12;;;;;;;9.07;8.25;;;;;;;17.64;54.05;95591.22;4988348;28;20034;-70
2021/09/24 01:30:38;;;;;;;9.27;8.48;;;;;;;17.70;54.19;95590.97;4988056;28;20038;-71
2021/09/24 01:33:03;;;;;;;10.00;9.18;;;;;;;18.10;52.70;95591.06;4988013;28;20042;-71
2021/09/24 01:35:29;;;;;;;10.25;9.02;;;;;;;17.05;55.15;95570.16;4988962;28;20083;-71
2021/09/24 01:37:54;;;;;;;9.75;8.82;;;;;;;16.93;55.34;95551.31;4990977;28;20026;-71
2021/09/24 01:40:20;;;;;;;10.13;9.23;;;;;;;17.61;53.97;95569.59;4987161;28;20054;-72
2021/09/24 01:42:50;;;;;;;9.50;8.70;;;;;;;18.05;52.80;95578.59;4986738;28;20042;-72
2021/09/24 01:45:15;;;;;;;10.13;9.23;;;;;;;17.57;54.17;95593.69;4989017;28;20129;-72
2021/09/24 01:47:41;;;;;;;10.88;9.25;;;;;;;17.35;54.77;95565.34;4989424;28;20743;-72
2021/09/24 01:50:08;;;;;;;10.60;9.70;;;;;;;17.26;55.06;95591.56;4990752;28;20066;-72
2021/09/24 01:52:34;;;;;;;9.60;8.80;;;;;;;17.51;54.34;95578.13;4988389;28;20061;-71
2021/09/24 01:54:59;;;;;;;9.82;8.95;;;;;;;17.70;53.89;95588.28;4988023;28;20035;-71
2021/09/24 01:57:25;;;;;;;9.23;8.52;;;;;;;17.89;53.17;95569.69;4986659;28;20042;-72
2021/09/24 01:59:50;;;;;;;10.43;9.52;;;;;;;18.09;52.71;95576.03;4986453;28;20034;-71
2021/09/24 02:02:16;;;;;;;15.00;9.45;;;;;;;17.70;53.90;95581.00;4985826;28;20022;-72
2021/09/24 02:04:42;;;;;;;10.10;9.25;;;;;;;17.30;55.19;95565.56;4989873;28;20168;-72
2021/09/24 02:07:07;;;;;;;10.93;9.18;;;;;;;17.61;54.32;95569.59;4988091;28;20030;-71
2021/09/24 02:09:33;;;;;;;10.32;9.43;;;;;;;17.51;54.38;95561.97;4987072;28;20064;-71
2021/09/24 02:11:59;;;;;;;11.25;10.18;;;;;;;17.84;53.59;95559.16;4987803;28;20058;-71
2021/09/24 02:14:25;;;;;;;11.07;9.93;;;;;;;17.77;53.45;95564.34;4987706;28;20491;-71
2021/09/24 02:16:50;;;;;;;10.52;9.52;;;;;;;17.44;54.64;95557.16;4990006;28;20049;-71
2021/09/24 02:19:16;;;;;;;11.05;9.95;;;;;;;16.83;55.64;95517.59;4987684;28;20125;-72
2021/09/24 02:21:41;;;;;;;10.52;9.50;;;;;;;17.49;54.65;95572.28;4987665;28;20074;-71
2021/09/24 02:24:07;;;;;;;10.55;9.65;;;;;;;17.04;56.35;95584.69;4987542;28;20070;-72
2021/09/24 02:26:32;;;;;;;11.10;10.10;;;;;;;17.33;55.52;95591.78;5004264;28;20125;-70
2021/09/24 02:28:57;;;;;;;11.07;10.05;;;;;;;16.96;56.60;95587.50;4993082;28;20033;-71
2021/09/24 02:31:23;;;;;;;10.90;9.88;;;;;;;17.17;55.92;95582.81;4991765;28;20082;-71
2021/09/24 02:33:48;;;;;;;11.10;10.20;;;;;;;17.06;56.19;95595.91;5004431;28;20041;-71
2021/09/24 02:36:14;;;;;;;11.70;10.60;;;;;;;16.89;57.18;95588.81;5011093;28;20507;-71
2021/09/24 02:38:39;;;;;;;12.15;10.30;;;;;;;17.04;56.34;95597.34;5010692;28;20041;-72
2021/09/24 02:41:05;;;;;;;11.32;10.32;;;;;;;17.04;56.77;95603.50;5008570;28;20030;-71
2021/09/24 02:43:32;;;;;;;12.20;11.13;;;;;;;16.77;57.76;95604.13;4964650;28;20472;-71
2021/09/24 02:45:57;;;;;;;11.85;10.75;;;;;;;17.12;56.35;95593.78;5000872;28;20034;-72
2021/09/24 02:48:23;;;;;;;12.40;11.27;;;;;;;16.67;57.94;95591.06;5011010;28;20042;-71
2021/09/24 02:50:48;;;;;;;12.75;11.48;;;;;;;17.41;55.20;95588.19;5010570;28;20046;-71
2021/09/24 02:53:14;;;;;;;12.55;11.48;;;;;;;17.52;55.38;95612.75;5010473;28;20032;-72
2021/09/24 02:55:39;;;;;;;13.25;12.05;;;;;;;17.35;55.30;95603.00;4996641;28;20045;-70
2021/09/24 02:58:05;;;;;;;15.88;13.38;;;;;;;17.54;55.07;95599.72;4974114;28;20039;-71
2021/09/24 03:00:30;;;;;;;13.45;12.32;;;;;;;17.45;54.97;95604.44;4991768;28;20046;-70
2021/09/24 03:02:56;;;;;;;13.18;12.07;;;;;;;17.15;56.23;95585.84;5010360;28;20432;-70
2021/09/24 03:05:21;;;;;;;17.30;12.13;;;;;;;17.25;55.78;95575.75;5010757;28;20494;-71
2021/09/24 03:07:47;;;;;;;13.93;12.35;;;;;;;16.64;56.10;95504.69;5012480;28;20036;-71
2021/09/24 03:10:13;;;;;;;14.05;12.70;;;;;;;17.18;56.64;95605.88;4996753;28;20097;-71
2021/09/24 03:12:39;;;;;;;14.38;12.65;;;;;;;17.42;55.60;95607.81;4990901;28;20026;-70
2021/09/24 03:15:07;;;;;;;14.60;12.85;;;;;;;17.29;56.31;95612.38;4990634;28;20566;-72
2021/09/24 03:17:32;;;;;;;13.95;12.63;;;;;;;17.27;55.93;95585.06;4990707;28;20088;-71
2021/09/24 03:19:58;;;;;;;14.55;13.13;;;;;;;17.22;56.26;95579.91;4992526;28;20034;-71
2021/09/24 03:22:23;;;;;;;15.18;13.70;;;;;;;17.38;55.67;95601.53;4991658;28;20077;-72
2021/09/24 03:24:49;;;;;;;16.33;14.57;;;;;;;17.44;55.48;95594.03;4990690;28;20039;-71
2021/09/24 03:27:14;;;;;;;14.98;13.48;;;;;;;17.59;54.92;95604.88;4990231;28;20117;-72
2021/09/24 03:29:40;;;;;;;15.23;13.82;;;;;;;17.30;56.04;95589.78;4990944;28;20132;-71
2021/09/24 03:32:06;;;;;;;16.05;14.50;;;;;;;17.46;55.58;95619.47;5007606;28;20134;-71
2021/09/24 03:34:31;;;;;;;16.17;14.48;;;;;;;17.30;56.08;95615.84;4990491;28;20034;-70
2021/09/24 03:36:57;;;;;;;15.80;14.18;;;;;;;17.50;55.44;95617.66;4990367;28;20042;-71
2021/09/24 03:39:22;;;;;;;16.40;14.70;;;;;;;17.48;55.18;95601.06;4988389;28;20524;-71
2021/09/24 03:41:48;;;;;;;16.92;15.23;;;;;;;17.45;55.12;95588.28;4990175;28;20030;-72
2021/09/24 03:44:13;;;;;;;18.35;15.23;;;;;;;17.39;54.95;95582.34;4989922;28;20033;-74
2021/09/24 03:46:39;;;;;;;16.52;14.75;;;;;;;17.42;55.69;95613.19;5011868;28;20430;-71
2021/09/24 03:49:05;;;;;;;15.77;14.13;;;;;;;17.29;56.44;95614.28;5008457;28;20042;-72
2021/09/24 03:51:31;;;;;;;15.65;13.88;;;;;;;17.03;57.31;95583.13;5009327;28;20088;-72
2021/09/24 03:53:56;;;;;;;18.30;14.07;;;;;;;17.48;56.09;95595.69;5010324;28;20510;-72
2021/09/24 03:56:22;;;;;;;17.75;14.18;;;;;;;17.06;57.49;95597.81;4990367;28;20069;-72
2021/09/24 03:58:48;;;;;;;16.98;15.23;;;;;;;17.12;56.75;95588.41;5004044;28;20432;-72
2021/09/24 04:01:13;;;;;;;18.55;14.10;;;;;;;16.63;58.78;95599.81;5009461;28;20033;-72
2021/09/24 04:03:39;;;;;;;16.00;14.40;;;;;;;16.76;58.18;95592.59;5009200;28;20038;-71
2021/09/24 04:06:04;;;;;;;16.02;14.52;;;;;;;16.93;57.88;95590.81;5009510;28;20050;-71
2021/09/24 04:08:29;;;;;;;17.23;15.15;;;;;;;17.14;57.15;95613.03;5009219;28;20041;-71
2021/09/24 04:10:55;;;;;;;16.42;14.77;;;;;;;17.13;57.46;95596.13;4994462;28;20030;-73
2021/09/24 04:13:21;;;;;;;15.45;13.98;;;;;;;17.19;57.28;95603.97;4991696;28;20664;-76
2021/09/24 04:15:47;;;;;;;15.93;14.40;;;;;;;17.42;56.51;95610.50;4994213;28;20038;-72
2021/09/24 04:18:12;;;;;;;17.08;15.10;;;;;;;17.28;56.34;95607.34;4988372;28;20408;-71
2021/09/24 04:20:38;;;;;;;15.82;14.02;;;;;;;17.29;56.15;95595.47;4989195;28;20076;-71
2021/09/24 04:23:03;;;;;;;16.90;14.95;;;;;;;16.86;57.36;95592.16;4991298;28;20054;-71
2021/09/24 04:25:29;;;;;;;18.40;14.77;;;;;;;16.84;58.01;95607.84;4989207;28;20125;-72
2021/09/24 04:27:54;;;;;;;16.25;14.35;;;;;;;16.88;58.05;95611.41;4989389;28;20034;-71
2021/09/24 04:30:20;;;;;;;16.45;14.90;;;;;;;16.66;58.09;95597.56;4988977;28;20054;-71
2021/09/24 04:32:47;;;;;;;15.57;13.95;;;;;;;16.61;58.35;95580.53;4989302;28;20137;-71
2021/09/24 04:35:13;;;;;;;16.67;15.02;;;;;;;16.68;58.43;95596.09;4989576;28;20023;-72
2021/09/24 04:37:38;;;;;;;16.95;15.15;;;;;;;16.78;58.43;95598.41;4991550;28;20472;-71
2021/09/24 04:40:04;;;;;;;16.63;14.88;;;;;;;17.14;56.93;95605.75;4988353;28;20101;-71
2021/09/24 04:42:30;;;;;;;16.70;15.00;;;;;;;17.11;56.76;95601.06;4988638;28;20465;-71
2021/09/24 04:44:55;;;;;;;17.98;15.43;;;;;;;17.13;56.57;95596.13;4989112;28;20128;-71
2021/09/24 04:47:20;;;;;;;17.00;15.32;;;;;;;16.83;57.30;95587.44;4989550;28;20453;-72
2021/09/24 04:49:46;;;;;;;19.33;15.50;;;;;;;17.10;56.75;95596.81;4990581;28;20033;-73
2021/09/24 04:52:11;;;;;;;23.85;16.40;;;;;;;17.23;56.03;95591.44;4989169;28;20046;-71
2021/09/24 04:54:37;;;;;;;16.55;14.88;;;;;;;17.04;56.93;95594.66;4988535;28;20104;-72
2021/09/24 04:57:02;;;;;;;19.05;17.00;;;;;;;17.27;56.02;95597.72;4988760;28;20066;-72
2021/09/24 04:59:27;;;;;;;17.55;15.77;;;;;;;17.28;55.94;95601.97;4988503;28;20023;-71
2021/09/24 05:01:53;;;;;;;16.27;14.40;;;;;;;16.76;57.64;95600.66;4990827;28;20031;-71
2021/09/24 05:04:18;;;;;;;16.58;14.95;;;;;;;17.11;57.12;95616.41;4988242;28;20579;-71
2021/09/24 05:06:44;;;;;;;20.90;16.17;;;;;;;17.08;56.33;95604.41;4987394;28;20042;-72
2021/09/24 05:09:09;;;;;;;25.05;20.60;;;;;;;17.21;56.27;95607.13;4988029;28;20058;-67
2021/09/24 05:11:34;;;;;;;20.83;15.98;;;;;;;17.26;56.46;95625.72;4987859;28;20042;-67
2021/09/24 05:14:00;;;;;;;22.38;15.40;;;;;;;17.32;55.95;95619.00;4990918;28;20018;-68
2021/09/24 05:16:26;;;;;;;18.88;15.43;;;;;;;16.66;57.93;95629.78;4987492;28;20054;-68
2021/09/24 05:18:51;;;;;;;16.02;14.07;;;;;;;16.80;57.49;95608.84;4990132;28;20053;-68
2021/09/24 05:21:17;;;;;;;15.05;13.65;;;;;;;17.19;56.83;95626.25;4989030;28;20045;-68
2021/09/24 05:23:42;;;;;;;17.63;14.55;;;;;;;17.12;56.78;95624.13;4988231;28;20448;-74
2021/09/24 05:26:08;;;;;;;20.02;14.43;;;;;;;17.26;56.21;95621.13;4990085;28;20100;-68
2021/09/24 05:28:33;;;;;;;18.73;13.98;;;;;;;17.24;56.01;95622.56;4988049;28;20455;-65
2021/09/24 05:30:59;;;;;;;16.00;13.27;;;;;;;17.36;56.24;95631.44;4988088;28;20049;-71
2021/09/24 05:33:24;;;;;;;14.40;12.98;;;;;;;17.07;56.90;95629.72;5002338;28;20043;-68
2021/09/24 05:35:50;;;;;;;15.43;13.70;;;;;;;17.46;55.96;95637.50;4988460;28;20034;-68
2021/09/24 05:38:15;;;;;;;13.25;11.90;;;;;;;17.55;55.78;95638.94;4988138;28;20027;-69
2021/09/24 05:40:41;;;;;;;14.52;13.02;;;;;;;17.57;55.60;95641.31;4989108;28;20026;-65
2021/09/24 05:43:07;;;;;;;15.30;13.05;;;;;;;17.53;55.28;95646.59;4987695;28;20045;-69
2021/09/24 05:45:32;;;;;;;13.95;12.02;;;;;;;17.31;56.27;95645.13;4988071;28;20037;-68
2021/09/24 05:47:58;;;;;;;14.93;13.52;;;;;;;17.86;55.24;95648.38;4986918;28;20038;-69
2021/09/24 05:50:23;;;;;;;14.73;12.27;;;;;;;17.97;54.64;95654.91;4985929;28;20022;-66
2021/09/24 05:52:51;;;;;;;14.23;12.90;;;;;;;17.83;54.82;95654.47;4985021;28;20030;-68
2021/09/24 05:55:19;;;;;;;17.70;15.82;;;;;;;18.18;54.44;95657.44;4981793;28;20480;-61
2021/09/24 05:57:45;;;;;;;21.00;15.15;;;;;;;18.38;53.87;95666.50;4990301;28;20045;-63
2021/09/24 06:00:14;;;;;;;16.85;15.15;;;;;;;18.56;53.55;95662.41;4987849;28;20042;-62
2021/09/24 06:02:40;;;;;;;15.50;13.95;;;;;;;18.67;53.30;95673.47;4990749;28;20121;-64
2021/09/24 06:05:06;;;;;;;15.82;13.00;;;;;;;18.67;53.08;95670.78;4993713;28;20530;-62
2021/09/24 06:07:31;;;;;;;15.10;13.43;;;;;;;18.76;53.20;95673.38;4991933;28;20046;-64
2021/09/24 06:09:57;;;;;;;12.68;11.52;;;;;;;18.64;53.36;95682.25;4990918;28;20085;-63
2021/09/24 06:12:22;;;;;;;14.02;12.63;;;;;;;18.77;52.99;95642.59;4991496;28;20522;-66
2021/09/24 06:14:48;;;;;;;13.88;12.63;;;;;;;19.02;52.66;95668.31;4991597;28;20048;-66
2021/09/24 06:17:14;;;;;;;17.20;12.88;;;;;;;19.02;52.40;95670.22;4990205;28;20023;-66
2021/09/24 06:19:39;;;;;;;12.98;11.63;;;;;;;18.97;52.37;95644.28;4993401;28;20022;-65
2021/09/24 06:22:07;;;;;;;12.38;11.20;;;;;;;19.19;52.15;95681.47;4990224;28;20038;-65
2021/09/24 06:24:33;;;;;;;12.23;11.05;;;;;;;18.73;51.97;95630.91;4991276;28;20027;-68
2021/09/24 06:26:58;;;;;;;11.38;10.23;;;;;;;18.84;53.16;95677.84;4994151;28;20034;-65
2021/09/24 06:29:24;;;;;;;12.70;10.73;;;;;;;19.41;52.04;95680.13;4991778;28;20110;-64
2021/09/24 06:31:50;;;;;;;17.85;9.80;;;;;;;19.00;52.24;95675.97;4997127;28;20038;-64
2021/09/24 06:34:15;;;;;;;16.30;9.13;;;;;;;18.95;52.79;95670.81;4990097;28;20699;-63
2021/09/24 06:36:41;;;;;;;13.70;10.23;;;;;;;18.83;52.83;95668.94;4991561;28;20053;-64
2021/09/24 06:39:06;;;;;;;10.35;9.45;;;;;;;19.17;51.96;95675.63;4990993;28;20107;-66
2021/09/24 06:41:32;;;;;;;10.88;9.02;;;;;;;19.25;51.37;95652.34;4990959;28;20049;-66
2021/09/24 06:43:57;;;;;;;10.43;9.35;;;;;;;19.36;51.72;95663.41;4999967;28;20161;-66
2021/09/24 06:46:22;;;;;;;10.77;8.98;;;;;;;18.59;53.25;95664.41;5002472;28;20049;-66
2021/09/24 06:48:48;;;;;;;15.55;9.10;;;;;;;19.36;52.11;95669.56;5009591;28;20069;-65
2021/09/24 06:51:13;;;;;;;10.82;8.43;;;;;;;19.42;51.57;95675.50;5010832;28;20060;-64
2021/09/24 06:53:39;;;;;;;9.05;7.95;;;;;;;19.26;52.14;95682.78;5010366;28;20053;-67
2021/09/24 06:56:04;;;;;;;10.27;8.48;;;;;;;19.78;51.17;95679.88;5002660;28;20034;-63
2021/09/24 06:58:30;;;;;;;8.27;7.53;;;;;;;19.41;51.98;95672.00;4994074;28;20045;-63
2021/09/24 07:00:55;;;;;;;9.15;8.18;;;;;;;19.66;51.54;95671.88;4995286;28;20030;-63
2021/09/24 07:03:21;;;;;;;9.60;8.60;;;;;;;20.09;50.26;95670.94;4990513;28;20047;-62
2021/09/24 07:05:47;;;;;;;9.32;7.78;;;;;;;20.00;49.92;95684.63;4990564;28;20483;-65
2021/09/24 07:08:12;;;;;;;8.77;7.85;;;;;;;19.45;51.13;95677.50;4990736;28;20030;-63
2021/09/24 07:10:38;;;;;;;8.57;7.45;;;;;;;19.67;50.55;95685.03;4991741;28;20058;-64
2021/09/24 07:13:03;;;;;;;8.25;7.30;;;;;;;19.60;51.57;95678.66;4990396;28;20073;-64
2021/09/24 07:15:29;;;;;;;8.52;6.68;;;;;;;19.35;51.84;95681.50;5001627;28;20046;-63
2021/09/24 07:17:54;;;;;;;7.35;6.63;;;;;;;19.21;52.35;95687.31;5010130;28;20454;-63
2021/09/24 07:20:21;;;;;;;6.97;6.32;;;;;;;18.95;52.62;95690.47;5009688;28;20026;-60
2021/09/24 07:22:47;;;;;;;6.78;5.88;;;;;;;18.55;53.21;95690.47;5010789;28;20391;-64
2021/09/24 07:25:12;;;;;;;7.47;6.78;;;;;;;18.52;53.15;95685.75;5008307;28;20054;-66
2021/09/24 07:27:38;;;;;;;6.93;6.22;;;;;;;19.22;51.80;95704.25;4989206;28;20042;-65
2021/09/24 07:30:04;;;;;;;9.25;6.50;;;;;;;19.81;50.70;95698.09;4997234;28;20395;-66
2021/09/24 07:32:29;;;;;;;7.40;6.80;;;;;;;20.13;49.73;95696.13;4990594;28;20030;-66
2021/09/24 07:34:54;;;;;;;6.47;5.88;;;;;;;19.96;50.05;95712.69;4992521;28;20040;-66
2021/09/24 07:37:20;;;;;;;10.07;6.43;;;;;;;20.52;49.06;95704.31;4990247;28;20097;-66
2021/09/24 07:39:45;;;;;;;7.72;6.75;;;;;;;19.49;50.88;95702.66;4989679;28;20206;-66
2021/09/24 07:42:11;;;;;;;7.55;6.88;;;;;;;19.05;51.76;95693.81;4989876;28;20080;-66
2021/09/24 07:44:36;;;;;;;7.63;6.18;;;;;;;19.49;51.70;95711.53;4994160;28;20546;-66
2021/09/24 07:47:02;;;;;;;9.68;6.20;;;;;;;19.80;50.39;95711.91;5003394;28;20108;-66
2021/09/24 07:49:28;;;;;;;7.57;6.45;;;;;;;19.49;50.75;95708.81;5009279;28;20038;-66
2021/09/24 07:51:53;;;;;;;6.78;6.15;;;;;;;19.64;50.79;95703.81;5008620;28;20046;-66
2021/09/24 07:54:21;;;;;;;7.10;6.40;;;;;;;19.83;49.78;95705.81;5007380;28;20042;-66
2021/09/24 07:56:51;;;;;;;6.82;6.13;;;;;;;20.70;48.43;95705.50;4994380;28;20050;-66
2021/09/24 07:59:17;;;;;;;6.60;5.90;;;;;;;21.03;47.97;95704.97;4990329;28;20030;-66
2021/09/24 08:01:42;;;;;;;6.07;5.47;;;;;;;20.77;47.92;95692.09;4996245;28;20026;-66
2021/09/24 08:04:08;;;;;;;7.85;5.85;;;;;;;21.69;45.60;95700.41;4987521;28;20062;-66
2021/09/24 08:06:33;;;;;;;6.85;5.95;;;;;;;20.28;48.11;95686.44;4989890;28;20696;-65
2021/09/24 08:08:59;;;;;;;5.25;4.85;;;;;;;19.72;49.72;95709.06;4989299;28;20038;-66
2021/09/24 08:11:24;;;;;;;6.32;5.80;;;;;;;19.78;48.97;95720.38;4989172;28;20041;-66
2021/09/24 08:13:49;;;;;;;5.72;5.22;;;;;;;20.50;47.81;95710.09;4991356;28;20711;-66
2021/09/24 08:16:15;;;;;;;8.27;5.47;;;;;;;20.66;47.21;95695.75;4997697;28;20069;-66
2021/09/24 08:18:40;;;;;;;5.97;5.38;;;;;;;20.29;47.73;95708.81;4987839;28;20085;-66
2021/09/24 08:21:06;;;;;;;6.30;5.70;;;;;;;20.13;48.39;95719.66;4989665;28;20126;-66
2021/09/24 08:23:32;;;;;;;5.65;5.10;;;;;;;19.64;49.38;95718.09;4987608;28;20038;-66
2021/09/24 08:25:57;;;;;;;7.18;5.80;;;;;;;19.18;50.62;95722.25;4989336;28;20113;-66
2021/09/24 08:28:23;;;;;;;6.50;5.90;;;;;;;19.83;49.53;95716.63;4988840;28;20033;-66
2021/09/24 08:30:48;;;;;;;6.13;5.50;;;;;;;19.73;49.22;95721.41;4996796;28;20558;-66
2021/09/24 08:33:17;;;;;;;6.78;5.90;;;;;;;19.84;49.42;95735.16;5006297;28;20534;-74
2021/09/24 08:35:44;;;;;;;6.93;5.78;;;;;;;19.78;49.29;95706.09;5012787;28;20108;-75
2021/09/24 08:38:10;;;;;;;5.75;5.35;;;;;;;20.19;47.85;95665.00;4999085;28;20056;-75
2021/09/24 08:40:37;;;;;;;6.07;5.50;;;;;;;20.36;48.64;95731.34;5006670;28;20041;-79
2021/09/24 08:43:03;;;;;;;6.25;5.30;;;;;;;20.47;48.38;95739.72;4989972;28;20042;-78
2021/09/24 08:45:30;;;;;;;6.65;5.35;;;;;;;19.19;49.68;95630.25;4979472;28;20038;-81
2021/09/24 08:47:59;;;;;;;5.80;5.28;;;;;;;20.08;48.22;95698.31;4976069;28;20543;-77
2021/09/24 08:50:26;;;;;;;5.28;4.78;;;;;;;19.67;49.54;95705.84;4990162;28;20038;-87
2021/09/24 08:52:52;;;;;;;5.63;5.20;;;;;;;19.67;49.90;95733.59;4993628;28;20034;-83
2021/09/24 08:55:17;;;;;;;5.25;4.75;;;;;;;19.98;49.49;95722.00;4991608;28;20053;-82
2021/09/24 08:57:44;;;;;;;5.40;4.90;;;;;;;19.59;48.66;95660.88;4990105;28;20034;-82
2021/09/24 09:00:12;;;;;;;6.03;5.47;;;;;;;19.51;48.63;95700.41;4991578;28;20400;-86
2021/09/24 09:02:56;;;;;;;6.22;5.45;;;;;;;19.21;49.47;95636.06;5011018;28;20124;-83
2021/09/24 09:05:22;;;;;;;6.72;5.38;;;;;;;19.45;49.13;95639.75;5010771;28;20021;-83
2021/09/24 09:07:48;;;;;;;6.50;5.05;;;;;;;20.45;47.43;95698.75;5012214;28;20026;-85
2021/09/24 09:10:17;;;;;;;8.07;5.07;;;;;;;21.27;46.29;95703.91;5010639;28;20116;-82
2021/09/24 09:12:43;;;;;;;5.35;4.85;;;;;;;20.81;46.48;95675.19;4991528;28;20377;-82
2021/09/24 09:15:12;;;;;;;5.45;4.80;;;;;;;21.28;45.25;95651.34;4990543;28;20149;-83
2021/09/24 09:17:50;;;;;;;5.80;5.20;;;;;;;21.63;45.37;95699.13;4987296;28;20034;-82
2021/09/24 09:20:29;;;;;;;8.30;5.28;;;;;;;21.02;46.37;95703.41;4970999;28;20030;-83
2021/09/24 09:22:58;;;;;;;6.00;5.50;;;;;;;19.94;49.13;95704.16;4972689;28;20503;-76
2021/09/24 09:25:33;;;;;;;8.73;5.22;;;;;;;21.12;46.87;95702.06;4988255;28;20035;-82
2021/09/24 09:28:36;;;;;;;5.80;4.90;;;;;;;21.79;45.49;95694.38;4990682;28;20096;-83
2021/09/24 09:31:14;;;;;;;5.55;5.15;;;;;;;21.43;46.25;95681.38;4989622;28;20522;-83
2021/09/24 09:33:39;;;;;;;6.68;5.03;;;;;;;22.38;44.36;95680.59;4991102;28;20089;-83
2021/09/24 09:36:04;;;;;;;6.82;5.15;;;;;;;22.48;43.76;95664.47;4988440;28;20046;-84
2021/09/24 09:38:36;;;;;;;6.47;5.43;;;;;;;22.08;44.37;95654.19;4989340;28;20022;-84
2021/09/24 09:41:05;;;;;;;;;;;;;;;22.01;44.88;95689.31;4992203;28;20491;-85
2021/09/24 09:43:35;;;;;;;6.00;4.95;;;;;;;21.03;45.83;95541.94;4988838;28;19918;-84
2021/09/24 09:46:06;;;;;;;7.47;4.97;;;;;;;21.32;46.41;95697.44;4991360;28;20035;-85
2021/09/24 09:48:32;;;;;;;4.85;4.38;;;;;;;22.19;44.16;95617.22;4989811;28;20045;-83
2021/09/24 09:50:58;;;;;;;5.72;5.10;;;;;;;21.54;45.41;95636.34;4990928;28;20034;-83
2021/09/24 09:53:24;;;;;;;8.25;5.13;;;;;;;21.58;45.25;95639.88;5005412;28;20038;-85
2021/09/24 09:55:59;;;;;;;5.43;4.93;;;;;;;23.39;42.44;95658.91;5007830;28;20018;-84
2021/09/24 09:58:27;;;;;;;6.00;5.45;;;;;;;22.12;43.87;95576.50;4989138;28;20030;-82
2021/09/24 10:01:09;;;;;;;5.55;5.05;;;;;;;21.45;45.74;95679.91;4989235;28;20065;-87
2021/09/24 10:03:42;;;;;;;7.78;4.38;;;;;;;22.11;45.30;95666.25;4989983;28;20038;-85
2021/09/24 10:06:20;;;;;;;6.78;4.85;;;;;;;22.99;42.85;95657.75;4990546;28;20038;-84
2021/09/24 10:08:49;;;;;;;6.53;5.00;;;;;;;21.90;45.49;95669.38;4989480;28;20492;-87
2021/09/24 10:11:14;;;;;;;5.80;5.30;;;;;;;21.57;43.70;95524.63;4989569;28;20592;-86
2021/09/24 10:14:00;;;;;;;6.72;4.90;;;;;;;23.23;43.32;95656.41;4991934;28;20046;-86
2021/09/24 10:16:30;;;;;;;5.10;4.68;;;;;;;23.07;43.30;95575.25;4989974;28;20034;-84
2021/09/24 10:18:55;;;;;;;4.80;4.40;;;;;;;23.22;42.88;95636.66;4989196;28;20136;-84
2021/09/24 10:21:22;;;;;;;4.90;4.50;;;;;;;24.64;41.37;95657.91;4988907;28;20038;-83
2021/09/24 10:23:48;;;;;;;6.50;4.68;;;;;;;23.32;41.51;95565.41;4989303;28;20038;-86
2021/09/24 10:26:21;;;;;;;7.40;5.38;;;;;;;24.42;40.53;95658.97;4988845;28;20039;-79
2021/09/24 10:28:47;;;;;;;6.45;5.00;;;;;;;23.32;42.68;95638.69;4991392;28;20030;-77
2021/09/24 10:31:16;;;;;;;7.30;5.18;;;;;;;23.65;40.97;95603.69;4989933;28;20031;-80
2021/09/24 10:33:52;;;;;;;6.15;5.55;;;;;;;23.61;42.03;95647.09;4988833;28;20046;-78
2021/09/24 10:36:35;;;;;;;6.70;5.45;;;;;;;22.33;44.33;95649.16;4990398;28;20038;-84
2021/09/24 10:39:01;;;;;;;6.90;5.70;;;;;;;22.45;43.34;95632.66;4988911;28;20031;-81
2021/09/24 10:41:26;;;;;;;5.78;5.38;;;;;;;23.68;41.52;95638.25;4989919;28;20026;-79
2021/09/24 10:43:54;;;;;;;5.32;4.82;;;;;;;23.11;42.04;95567.16;4991429;28;20506;-80
2021/09/24 10:46:38;;;;;;;5.47;4.97;;;;;;;23.76;41.91;95626.28;4990449;28;20034;-84
2021/09/24 10:49:15;;;;;;;5.80;5.38;;;;;;;22.66;43.75;95632.13;4991263;28;20044;-85
2021/09/24 10:51:57;;;;;;;6.07;5.57;;;;;;;21.93;43.71;95533.25;4991319;28;20045;-85
2021/09/24 10:54:24;;;;;;;5.28;4.78;;;;;;;22.58;44.46;95644.06;4994328;28;20544;-83
2021/09/24 10:57:00;;;;;;;7.88;5.38;;;;;;;23.45;41.80;95635.72;4992443;28;20076;-84
2021/09/24 10:59:33;;;;;;;5.53;5.03;;;;;;;23.57;41.91;95630.75;4992772;28;20023;-83
2021/09/24 11:02:00;;;;;;;8.90;5.82;;;;;;;24.03;41.71;95637.72;4996110;28;20184;-82
2021/09/24 11:04:43;;;;;;;6.25;5.45;;;;;;;23.46;41.49;95545.72;4990812;28;20042;-82
2021/09/24 11:07:09;;;;;;;7.63;6.00;;;;;;;22.69;41.30;95495.81;4991606;28;20077;-87
2021/09/24 11:09:51;;;;;;;5.88;5.43;;;;;;;23.47;41.57;95606.22;4992038;28;20069;-86
2021/09/24 11:12:16;;;;;;;5.07;4.68;;;;;;;23.50;41.73;95584.56;4992200;28;20130;-84
2021/09/24 11:14:42;;;;;;;6.63;5.45;;;;;;;23.03;41.81;95577.16;4992066;28;20070;-85
2021/09/24 11:17:10;;;;;;;6.25;5.65;;;;;;;22.94;42.15;95623.59;4994840;28;20022;-85
2021/09/24 11:19:45;;;;;;;6.18;5.30;;;;;;;22.75;43.01;95583.03;4993841;28;20046;-82
2021/09/24 11:22:18;;;;;;;5.30;4.90;;;;;;;22.77;42.72;95583.44;4976101;28;20039;-87
2021/09/24 11:25:04;;;;;;;5.47;5.03;;;;;;;22.22;44.46;95611.09;4985841;28;20034;-86